sensor_id;sensor_type;location;lat;lon;timestamp;P1;durP1;ratioP1;P2;durP2;ratioP2
15116;SDS011;7659;51.038;13.786;2023-05-07T00:00:18;18.25;;;14.32;;
15116;SDS011;7659;51.038;13.786;2023-05-07T00:02:44;21.83;;;13.65;;
15116;SDS011;7659;51.038;13.786;2023-05-07T00:05:10;20.05;;;14.10;;
15116;SDS011;7659;51.038;13.786;2023-05-07T00:07:35;19.90;;;14.93;;
15116;SDS011;7659;51.038;13.786;2023-05-07T00:10:01;19.00;;;14.68;;
15116;SDS011;7659;51.038;13.786;2023-05-07T00:12:27;19.38;;;14.63;;
15116;SDS011;7659;51.038;13.786;2023-05-07T00:14:52;19.60;;;15.30;;
15116;SDS011;7659;51.038;13.786;2023-05-07T00:17:18;21.92;;;15.02;;
15116;SDS011;7659;51.038;13.786;2023-05-07T00:19:43;19.38;;;14.07;;
15116;SDS011;7659;51.038;13.786;2023-05-07T00:22:09;18.23;;;14.38;;
15116;SDS011;7659;51.038;13.786;2023-05-07T00:24:35;22.65;;;15.60;;
15116;SDS011;7659;51.038;13.786;2023-05-07T00:27:01;20.67;;;14.65;;
15116;SDS011;7659;51.038;13.786;2023-05-07T00:29:26;19.40;;;15.10;;
15116;SDS011;7659;51.038;13.786;2023-05-07T00:31:51;20.10;;;15.10;;
15116;SDS011;7659;51.038;13.786;2023-05-07T00:34:19;21.45;;;15.77;;
15116;SDS011;7659;51.038;13.786;2023-05-07T00:36:45;40.40;;;30.00;;
15116;SDS011;7659;51.038;13.786;2023-05-07T00:39:11;38.90;;;32.50;;
15116;SDS011;7659;51.038;13.786;2023-05-07T00:41:36;23.75;;;16.45;;
15116;SDS011;7659;51.038;13.786;2023-05-07T00:44:02;19.90;;;16.65;;
15116;SDS011;7659;51.038;13.786;2023-05-07T00:46:27;20.95;;;16.48;;
15116;SDS011;7659;51.038;13.786;2023-05-07T00:48:53;20.83;;;16.15;;
15116;SDS011;7659;51.038;13.786;2023-05-07T00:51:19;21.42;;;16.60;;
15116;SDS011;7659;51.038;13.786;2023-05-07T00:53:45;20.98;;;16.63;;
15116;SDS011;7659;51.038;13.786;2023-05-07T00:56:10;22.70;;;16.95;;
15116;SDS011;7659;51.038;13.786;2023-05-07T00:58:36;22.60;;;16.95;;
15116;SDS011;7659;51.038;13.786;2023-05-07T01:01:02;20.10;;;16.80;;
15116;SDS011;7659;51.038;13.786;2023-05-07T01:03:28;21.75;;;16.52;;
15116;SDS011;7659;51.038;13.786;2023-05-07T01:05:53;23.50;;;17.77;;
15116;SDS011;7659;51.038;13.786;2023-05-07T01:08:20;21.83;;;17.65;;
15116;SDS011;7659;51.038;13.786;2023-05-07T01:10:47;21.98;;;16.85;;
15116;SDS011;7659;51.038;13.786;2023-05-07T01:13:13;18.58;;;15.10;;
15116;SDS011;7659;51.038;13.786;2023-05-07T01:15:40;20.23;;;16.20;;
15116;SDS011;7659;51.038;13.786;2023-05-07T01:18:06;23.73;;;16.73;;
15116;SDS011;7659;51.038;13.786;2023-05-07T01:20:34;22.02;;;17.02;;
15116;SDS011;7659;51.038;13.786;2023-05-07T01:23:00;21.90;;;15.95;;
15116;SDS011;7659;51.038;13.786;2023-05-07T01:25:26;20.15;;;15.43;;
15116;SDS011;7659;51.038;13.786;2023-05-07T01:27:55;17.73;;;14.93;;
15116;SDS011;7659;51.038;13.786;2023-05-07T01:30:25;20.67;;;15.48;;
15116;SDS011;7659;51.038;13.786;2023-05-07T01:32:53;17.75;;;14.15;;
15116;SDS011;7659;51.038;13.786;2023-05-07T01:35:22;21.70;;;14.90;;
15116;SDS011;7659;51.038;13.786;2023-05-07T01:37:50;17.13;;;13.85;;
15116;SDS011;7659;51.038;13.786;2023-05-07T01:40:16;18.55;;;14.93;;
15116;SDS011;7659;51.038;13.786;2023-05-07T01:42:42;16.50;;;13.90;;
15116;SDS011;7659;51.038;13.786;2023-05-07T01:45:08;16.13;;;13.77;;
15116;SDS011;7659;51.038;13.786;2023-05-07T01:47:34;16.48;;;13.85;;
15116;SDS011;7659;51.038;13.786;2023-05-07T01:50:01;18.10;;;14.48;;
15116;SDS011;7659;51.038;13.786;2023-05-07T01:52:27;18.65;;;13.65;;
15116;SDS011;7659;51.038;13.786;2023-05-07T01:54:53;16.15;;;13.38;;
15116;SDS011;7659;51.038;13.786;2023-05-07T01:57:18;18.10;;;13.63;;
15116;SDS011;7659;51.038;13.786;2023-05-07T01:59:44;18.58;;;13.82;;
15116;SDS011;7659;51.038;13.786;2023-05-07T02:02:09;21.33;;;15.43;;
15116;SDS011;7659;51.038;13.786;2023-05-07T02:04:38;17.75;;;15.18;;
15116;SDS011;7659;51.038;13.786;2023-05-07T02:07:04;21.55;;;16.92;;
15116;SDS011;7659;51.038;13.786;2023-05-07T02:09:30;18.88;;;15.70;;
15116;SDS011;7659;51.038;13.786;2023-05-07T02:11:55;18.23;;;15.15;;
15116;SDS011;7659;51.038;13.786;2023-05-07T02:14:22;21.63;;;15.57;;
15116;SDS011;7659;51.038;13.786;2023-05-07T02:16:47;19.38;;;15.80;;
15116;SDS011;7659;51.038;13.786;2023-05-07T02:19:14;22.00;;;15.77;;
15116;SDS011;7659;51.038;13.786;2023-05-07T02:21:39;18.02;;;14.80;;
15116;SDS011;7659;51.038;13.786;2023-05-07T02:24:05;19.73;;;15.18;;
15116;SDS011;7659;51.038;13.786;2023-05-07T02:26:31;18.67;;;15.18;;
15116;SDS011;7659;51.038;13.786;2023-05-07T02:28:57;19.13;;;16.38;;
15116;SDS011;7659;51.038;13.786;2023-05-07T02:31:22;19.20;;;15.88;;
15116;SDS011;7659;51.038;13.786;2023-05-07T02:33:48;20.33;;;17.42;;
15116;SDS011;7659;51.038;13.786;2023-05-07T02:36:14;21.75;;;16.38;;
15116;SDS011;7659;51.038;13.786;2023-05-07T02:38:46;20.38;;;15.55;;
15116;SDS011;7659;51.038;13.786;2023-05-07T02:41:12;17.25;;;15.30;;
15116;SDS011;7659;51.038;13.786;2023-05-07T02:43:37;19.92;;;15.13;;
15116;SDS011;7659;51.038;13.786;2023-05-07T02:46:04;20.73;;;15.27;;
15116;SDS011;7659;51.038;13.786;2023-05-07T02:48:31;16.38;;;14.32;;
15116;SDS011;7659;51.038;13.786;2023-05-07T02:50:57;17.80;;;14.60;;
15116;SDS011;7659;51.038;13.786;2023-05-07T02:53:23;17.50;;;13.85;;
15116;SDS011;7659;51.038;13.786;2023-05-07T02:55:52;18.48;;;13.52;;
15116;SDS011;7659;51.038;13.786;2023-05-07T02:58:17;18.70;;;14.05;;
15116;SDS011;7659;51.038;13.786;2023-05-07T03:00:43;19.58;;;12.52;;
15116;SDS011;7659;51.038;13.786;2023-05-07T03:03:19;15.07;;;11.45;;
15116;SDS011;7659;51.038;13.786;2023-05-07T03:05:45;14.00;;;11.77;;
15116;SDS011;7659;51.038;13.786;2023-05-07T03:08:11;16.10;;;10.85;;
15116;SDS011;7659;51.038;13.786;2023-05-07T03:10:37;15.70;;;10.48;;
15116;SDS011;7659;51.038;13.786;2023-05-07T03:13:02;13.27;;;10.50;;
15116;SDS011;7659;51.038;13.786;2023-05-07T03:15:28;13.98;;;10.20;;
15116;SDS011;7659;51.038;13.786;2023-05-07T03:17:54;14.40;;;10.45;;
15116;SDS011;7659;51.038;13.786;2023-05-07T03:20:19;14.65;;;10.95;;
15116;SDS011;7659;51.038;13.786;2023-05-07T03:22:45;12.65;;;10.50;;
15116;SDS011;7659;51.038;13.786;2023-05-07T03:25:10;17.55;;;11.48;;
15116;SDS011;7659;51.038;13.786;2023-05-07T03:27:36;13.52;;;10.95;;
15116;SDS011;7659;51.038;13.786;2023-05-07T03:30:02;15.07;;;11.13;;
15116;SDS011;7659;51.038;13.786;2023-05-07T03:32:28;14.80;;;11.07;;
15116;SDS011;7659;51.038;13.786;2023-05-07T03:34:53;13.30;;;10.73;;
15116;SDS011;7659;51.038;13.786;2023-05-07T03:37:19;14.63;;;10.65;;
15116;SDS011;7659;51.038;13.786;2023-05-07T03:39:47;16.90;;;12.57;;
15116;SDS011;7659;51.038;13.786;2023-05-07T03:42:12;16.08;;;11.88;;
15116;SDS011;7659;51.038;13.786;2023-05-07T03:44:38;15.98;;;11.65;;
15116;SDS011;7659;51.038;13.786;2023-05-07T03:47:04;18.70;;;12.63;;
15116;SDS011;7659;51.038;13.786;2023-05-07T03:49:30;17.65;;;12.57;;
15116;SDS011;7659;51.038;13.786;2023-05-07T03:51:56;20.73;;;13.00;;
15116;SDS011;7659;51.038;13.786;2023-05-07T03:54:22;18.75;;;13.93;;
15116;SDS011;7659;51.038;13.786;2023-05-07T03:56:48;19.95;;;14.90;;
15116;SDS011;7659;51.038;13.786;2023-05-07T03:59:13;22.08;;;15.05;;
15116;SDS011;7659;51.038;13.786;2023-05-07T04:01:40;22.42;;;16.90;;
15116;SDS011;7659;51.038;13.786;2023-05-07T04:04:06;22.35;;;16.25;;
15116;SDS011;7659;51.038;13.786;2023-05-07T04:06:34;21.17;;;15.73;;
15116;SDS011;7659;51.038;13.786;2023-05-07T04:08:59;23.63;;;16.25;;
15116;SDS011;7659;51.038;13.786;2023-05-07T04:11:26;22.48;;;16.63;;
15116;SDS011;7659;51.038;13.786;2023-05-07T04:13:52;26.17;;;16.98;;
15116;SDS011;7659;51.038;13.786;2023-05-07T04:16:20;22.75;;;15.95;;
15116;SDS011;7659;51.038;13.786;2023-05-07T04:18:46;23.85;;;17.50;;
15116;SDS011;7659;51.038;13.786;2023-05-07T04:21:13;21.85;;;15.90;;
15116;SDS011;7659;51.038;13.786;2023-05-07T04:23:39;23.20;;;16.40;;
15116;SDS011;7659;51.038;13.786;2023-05-07T04:26:09;23.33;;;16.38;;
15116;SDS011;7659;51.038;13.786;2023-05-07T04:28:38;22.98;;;15.93;;
15116;SDS011;7659;51.038;13.786;2023-05-07T04:31:05;23.80;;;16.23;;
15116;SDS011;7659;51.038;13.786;2023-05-07T04:33:33;21.30;;;15.38;;
15116;SDS011;7659;51.038;13.786;2023-05-07T04:36:00;23.17;;;15.85;;
15116;SDS011;7659;51.038;13.786;2023-05-07T04:38:29;20.92;;;14.88;;
15116;SDS011;7659;51.038;13.786;2023-05-07T04:40:56;21.95;;;15.70;;
15116;SDS011;7659;51.038;13.786;2023-05-07T04:43:23;19.90;;;15.10;;
15116;SDS011;7659;51.038;13.786;2023-05-07T04:45:50;20.65;;;13.77;;
15116;SDS011;7659;51.038;13.786;2023-05-07T04:48:16;19.05;;;12.45;;
15116;SDS011;7659;51.038;13.786;2023-05-07T04:50:48;18.15;;;12.80;;
15116;SDS011;7659;51.038;13.786;2023-05-07T04:53:14;20.65;;;13.43;;
15116;SDS011;7659;51.038;13.786;2023-05-07T04:55:40;18.17;;;12.60;;
15116;SDS011;7659;51.038;13.786;2023-05-07T04:58:06;16.98;;;12.75;;
15116;SDS011;7659;51.038;13.786;2023-05-07T05:00:34;19.02;;;14.05;;
15116;SDS011;7659;51.038;13.786;2023-05-07T05:03:02;18.95;;;13.77;;
15116;SDS011;7659;51.038;13.786;2023-05-07T05:05:28;18.58;;;13.45;;
15116;SDS011;7659;51.038;13.786;2023-05-07T05:07:54;22.13;;;14.98;;
15116;SDS011;7659;51.038;13.786;2023-05-07T05:10:20;21.25;;;15.38;;
15116;SDS011;7659;51.038;13.786;2023-05-07T05:12:46;19.42;;;13.55;;
15116;SDS011;7659;51.038;13.786;2023-05-07T05:15:12;19.23;;;13.85;;
15116;SDS011;7659;51.038;13.786;2023-05-07T05:17:38;22.27;;;14.98;;
15116;SDS011;7659;51.038;13.786;2023-05-07T05:20:05;18.50;;;13.90;;
15116;SDS011;7659;51.038;13.786;2023-05-07T05:22:31;20.75;;;14.75;;
15116;SDS011;7659;51.038;13.786;2023-05-07T05:24:58;17.42;;;13.98;;
15116;SDS011;7659;51.038;13.786;2023-05-07T05:27:24;18.05;;;13.13;;
15116;SDS011;7659;51.038;13.786;2023-05-07T05:29:50;18.35;;;13.82;;
15116;SDS011;7659;51.038;13.786;2023-05-07T05:32:15;22.05;;;15.27;;
15116;SDS011;7659;51.038;13.786;2023-05-07T05:34:41;18.95;;;13.57;;
15116;SDS011;7659;51.038;13.786;2023-05-07T05:37:07;18.45;;;14.32;;
15116;SDS011;7659;51.038;13.786;2023-05-07T05:39:33;19.52;;;14.18;;
15116;SDS011;7659;51.038;13.786;2023-05-07T05:41:59;16.92;;;13.27;;
15116;SDS011;7659;51.038;13.786;2023-05-07T05:44:25;17.30;;;12.52;;
15116;SDS011;7659;51.038;13.786;2023-05-07T05:46:51;17.23;;;12.18;;
15116;SDS011;7659;51.038;13.786;2023-05-07T05:49:17;14.20;;;11.02;;
15116;SDS011;7659;51.038;13.786;2023-05-07T05:51:44;16.33;;;11.80;;
15116;SDS011;7659;51.038;13.786;2023-05-07T05:54:10;15.05;;;11.38;;
15116;SDS011;7659;51.038;13.786;2023-05-07T05:56:36;13.38;;;10.52;;
15116;SDS011;7659;51.038;13.786;2023-05-07T05:59:01;14.45;;;11.05;;
15116;SDS011;7659;51.038;13.786;2023-05-07T06:01:27;12.60;;;9.30;;
15116;SDS011;7659;51.038;13.786;2023-05-07T06:03:55;13.38;;;9.98;;
15116;SDS011;7659;51.038;13.786;2023-05-07T06:06:21;14.18;;;9.88;;
15116;SDS011;7659;51.038;13.786;2023-05-07T06:08:46;12.13;;;8.98;;
15116;SDS011;7659;51.038;13.786;2023-05-07T06:11:16;13.00;;;8.77;;
15116;SDS011;7659;51.038;13.786;2023-05-07T06:13:44;11.63;;;8.85;;
15116;SDS011;7659;51.038;13.786;2023-05-07T06:16:10;11.55;;;7.97;;
15116;SDS011;7659;51.038;13.786;2023-05-07T06:18:36;14.48;;;9.02;;
15116;SDS011;7659;51.038;13.786;2023-05-07T06:21:02;12.02;;;8.88;;
15116;SDS011;7659;51.038;13.786;2023-05-07T06:23:30;10.18;;;8.10;;
15116;SDS011;7659;51.038;13.786;2023-05-07T06:25:56;13.27;;;9.60;;
15116;SDS011;7659;51.038;13.786;2023-05-07T06:28:26;11.88;;;8.88;;
15116;SDS011;7659;51.038;13.786;2023-05-07T06:30:53;8.60;;;6.47;;
15116;SDS011;7659;51.038;13.786;2023-05-07T06:33:18;8.00;;;6.18;;
15116;SDS011;7659;51.038;13.786;2023-05-07T06:35:45;11.27;;;6.75;;
15116;SDS011;7659;51.038;13.786;2023-05-07T06:38:10;10.00;;;7.25;;
15116;SDS011;7659;51.038;13.786;2023-05-07T06:40:38;10.02;;;7.57;;
15116;SDS011;7659;51.038;13.786;2023-05-07T06:43:03;8.70;;;6.78;;
15116;SDS011;7659;51.038;13.786;2023-05-07T06:45:49;9.85;;;7.05;;
15116;SDS011;7659;51.038;13.786;2023-05-07T06:48:15;11.45;;;7.97;;
15116;SDS011;7659;51.038;13.786;2023-05-07T06:51:03;9.80;;;8.43;;
15116;SDS011;7659;51.038;13.786;2023-05-07T06:53:30;12.40;;;8.35;;
15116;SDS011;7659;51.038;13.786;2023-05-07T06:55:56;10.40;;;7.75;;
15116;SDS011;7659;51.038;13.786;2023-05-07T06:58:22;9.70;;;7.47;;
15116;SDS011;7659;51.038;13.786;2023-05-07T07:00:48;9.68;;;7.65;;
15116;SDS011;7659;51.038;13.786;2023-05-07T07:03:13;8.98;;;7.43;;
15116;SDS011;7659;51.038;13.786;2023-05-07T07:05:42;13.35;;;8.63;;
15116;SDS011;7659;51.038;13.786;2023-05-07T07:08:09;11.68;;;8.88;;
15116;SDS011;7659;51.038;13.786;2023-05-07T07:10:35;11.95;;;9.73;;
15116;SDS011;7659;51.038;13.786;2023-05-07T07:13:02;11.05;;;8.90;;
15116;SDS011;7659;51.038;13.786;2023-05-07T07:15:28;11.38;;;7.97;;
15116;SDS011;7659;51.038;13.786;2023-05-07T07:17:54;10.68;;;8.38;;
15116;SDS011;7659;51.038;13.786;2023-05-07T07:20:21;10.82;;;7.78;;
15116;SDS011;7659;51.038;13.786;2023-05-07T07:22:47;9.05;;;7.28;;
15116;SDS011;7659;51.038;13.786;2023-05-07T07:25:14;9.18;;;7.40;;
15116;SDS011;7659;51.038;13.786;2023-05-07T07:27:39;8.00;;;6.22;;
15116;SDS011;7659;51.038;13.786;2023-05-07T07:30:06;8.15;;;6.22;;
15116;SDS011;7659;51.038;13.786;2023-05-07T07:32:34;8.50;;;6.32;;
15116;SDS011;7659;51.038;13.786;2023-05-07T07:35:00;8.52;;;6.45;;
15116;SDS011;7659;51.038;13.786;2023-05-07T07:37:27;7.70;;;6.43;;
15116;SDS011;7659;51.038;13.786;2023-05-07T07:39:52;8.45;;;5.70;;
15116;SDS011;7659;51.038;13.786;2023-05-07T07:42:19;6.15;;;4.80;;
15116;SDS011;7659;51.038;13.786;2023-05-07T07:44:45;7.18;;;5.13;;
15116;SDS011;7659;51.038;13.786;2023-05-07T07:47:12;7.78;;;5.13;;
15116;SDS011;7659;51.038;13.786;2023-05-07T07:49:38;6.57;;;4.90;;
15116;SDS011;7659;51.038;13.786;2023-05-07T07:52:06;5.95;;;4.60;;
15116;SDS011;7659;51.038;13.786;2023-05-07T07:54:34;6.47;;;5.50;;
15116;SDS011;7659;51.038;13.786;2023-05-07T07:57:00;6.95;;;4.68;;
15116;SDS011;7659;51.038;13.786;2023-05-07T07:59:29;5.90;;;4.68;;
15116;SDS011;7659;51.038;13.786;2023-05-07T08:01:54;5.03;;;4.22;;
15116;SDS011;7659;51.038;13.786;2023-05-07T08:04:23;4.95;;;4.30;;
15116;SDS011;7659;51.038;13.786;2023-05-07T08:06:49;5.05;;;4.32;;
15116;SDS011;7659;51.038;13.786;2023-05-07T08:09:15;6.82;;;4.47;;
15116;SDS011;7659;51.038;13.786;2023-05-07T08:11:41;5.30;;;4.78;;
15116;SDS011;7659;51.038;13.786;2023-05-07T08:14:06;6.07;;;4.97;;
15116;SDS011;7659;51.038;13.786;2023-05-07T08:16:32;5.10;;;4.47;;
15116;SDS011;7659;51.038;13.786;2023-05-07T08:19:00;4.53;;;3.92;;
15116;SDS011;7659;51.038;13.786;2023-05-07T08:21:25;5.63;;;4.10;;
15116;SDS011;7659;51.038;13.786;2023-05-07T08:23:51;4.20;;;3.53;;
15116;SDS011;7659;51.038;13.786;2023-05-07T08:26:17;7.00;;;3.97;;
15116;SDS011;7659;51.038;13.786;2023-05-07T08:28:42;5.28;;;4.00;;
15116;SDS011;7659;51.038;13.786;2023-05-07T08:31:08;4.85;;;4.20;;
15116;SDS011;7659;51.038;13.786;2023-05-07T08:33:37;13.20;;;9.95;;
15116;SDS011;7659;51.038;13.786;2023-05-07T08:36:04;5.38;;;4.50;;
15116;SDS011;7659;51.038;13.786;2023-05-07T08:38:30;4.47;;;4.05;;
15116;SDS011;7659;51.038;13.786;2023-05-07T08:40:56;4.35;;;3.88;;
15116;SDS011;7659;51.038;13.786;2023-05-07T08:43:22;7.95;;;5.72;;
15116;SDS011;7659;51.038;13.786;2023-05-07T08:45:49;4.00;;;3.60;;
15116;SDS011;7659;51.038;13.786;2023-05-07T08:48:18;4.50;;;3.95;;
15116;SDS011;7659;51.038;13.786;2023-05-07T08:50:53;4.50;;;4.10;;
15116;SDS011;7659;51.038;13.786;2023-05-07T08:53:18;4.45;;;4.05;;
15116;SDS011;7659;51.038;13.786;2023-05-07T08:55:45;6.88;;;5.57;;
15116;SDS011;7659;51.038;13.786;2023-05-07T08:58:11;6.30;;;5.40;;
15116;SDS011;7659;51.038;13.786;2023-05-07T09:00:38;9.10;;;6.30;;
15116;SDS011;7659;51.038;13.786;2023-05-07T09:03:05;10.82;;;5.60;;
15116;SDS011;7659;51.038;13.786;2023-05-07T09:05:31;7.47;;;6.05;;
15116;SDS011;7659;51.038;13.786;2023-05-07T09:08:02;6.75;;;5.65;;
15116;SDS011;7659;51.038;13.786;2023-05-07T09:10:28;7.50;;;6.18;;
15116;SDS011;7659;51.038;13.786;2023-05-07T09:12:54;7.13;;;5.90;;
15116;SDS011;7659;51.038;13.786;2023-05-07T09:15:20;7.35;;;5.82;;
15116;SDS011;7659;51.038;13.786;2023-05-07T09:17:45;10.25;;;6.32;;
15116;SDS011;7659;51.038;13.786;2023-05-07T09:20:11;7.35;;;5.40;;
15116;SDS011;7659;51.038;13.786;2023-05-07T09:22:38;8.75;;;6.25;;
15116;SDS011;7659;51.038;13.786;2023-05-07T09:25:07;9.18;;;7.00;;
15116;SDS011;7659;51.038;13.786;2023-05-07T09:27:35;9.38;;;6.55;;
15116;SDS011;7659;51.038;13.786;2023-05-07T09:30:05;7.85;;;6.40;;
15116;SDS011;7659;51.038;13.786;2023-05-07T09:32:36;7.10;;;6.40;;
15116;SDS011;7659;51.038;13.786;2023-05-07T09:35:04;8.02;;;6.28;;
15116;SDS011;7659;51.038;13.786;2023-05-07T09:37:31;9.43;;;6.88;;
15116;SDS011;7659;51.038;13.786;2023-05-07T09:39:56;7.90;;;6.70;;
15116;SDS011;7659;51.038;13.786;2023-05-07T09:42:23;8.00;;;6.25;;
15116;SDS011;7659;51.038;13.786;2023-05-07T09:44:51;7.72;;;6.10;;
15116;SDS011;7659;51.038;13.786;2023-05-07T09:47:19;7.30;;;6.10;;
15116;SDS011;7659;51.038;13.786;2023-05-07T09:49:49;7.18;;;5.68;;
15116;SDS011;7659;51.038;13.786;2023-05-07T09:52:19;6.22;;;5.03;;
15116;SDS011;7659;51.038;13.786;2023-05-07T09:54:48;6.13;;;5.38;;
15116;SDS011;7659;51.038;13.786;2023-05-07T09:57:17;6.20;;;5.47;;
15116;SDS011;7659;51.038;13.786;2023-05-07T09:59:47;6.30;;;5.40;;
15116;SDS011;7659;51.038;13.786;2023-05-07T10:02:16;6.63;;;5.97;;
15116;SDS011;7659;51.038;13.786;2023-05-07T10:04:49;7.70;;;6.70;;
15116;SDS011;7659;51.038;13.786;2023-05-07T10:07:19;6.95;;;6.25;;
15116;SDS011;7659;51.038;13.786;2023-05-07T10:09:46;7.65;;;6.60;;
15116;SDS011;7659;51.038;13.786;2023-05-07T10:12:21;9.88;;;6.57;;
15116;SDS011;7659;51.038;13.786;2023-05-07T10:14:48;7.07;;;6.38;;
15116;SDS011;7659;51.038;13.786;2023-05-07T10:17:15;7.95;;;6.72;;
15116;SDS011;7659;51.038;13.786;2023-05-07T10:19:43;8.18;;;7.30;;
15116;SDS011;7659;51.038;13.786;2023-05-07T10:22:09;7.85;;;7.05;;
15116;SDS011;7659;51.038;13.786;2023-05-07T10:24:40;8.15;;;6.70;;
15116;SDS011;7659;51.038;13.786;2023-05-07T10:27:12;8.25;;;6.90;;
15116;SDS011;7659;51.038;13.786;2023-05-07T10:29:58;7.05;;;6.35;;
15116;SDS011;7659;51.038;13.786;2023-05-07T10:35:04;7.07;;;6.35;;
15116;SDS011;7659;51.038;13.786;2023-05-07T10:37:32;8.00;;;6.78;;
15116;SDS011;7659;51.038;13.786;2023-05-07T10:39:57;7.60;;;6.68;;
15116;SDS011;7659;51.038;13.786;2023-05-07T10:42:24;7.25;;;6.28;;
15116;SDS011;7659;51.038;13.786;2023-05-07T10:44:53;8.55;;;6.80;;
15116;SDS011;7659;51.038;13.786;2023-05-07T10:47:26;8.95;;;6.18;;
15116;SDS011;7659;51.038;13.786;2023-05-07T10:52:31;6.82;;;6.03;;
15116;SDS011;7659;51.038;13.786;2023-05-07T10:58:23;6.57;;;5.55;;
15116;SDS011;7659;51.038;13.786;2023-05-07T11:00:56;5.82;;;5.22;;
15116;SDS011;7659;51.038;13.786;2023-05-07T11:03:27;6.50;;;4.90;;
15116;SDS011;7659;51.038;13.786;2023-05-07T11:06:11;5.97;;;5.38;;
15116;SDS011;7659;51.038;13.786;2023-05-07T11:14:13;5.60;;;5.05;;
15116;SDS011;7659;51.038;13.786;2023-05-07T11:16:45;6.53;;;5.60;;
15116;SDS011;7659;51.038;13.786;2023-05-07T11:22:54;6.07;;;5.40;;
15116;SDS011;7659;51.038;13.786;2023-05-07T11:25:05;7.07;;;5.20;;
15116;SDS011;7659;51.038;13.786;2023-05-07T11:27:31;6.03;;;5.43;;
15116;SDS011;7659;51.038;13.786;2023-05-07T11:29:57;6.05;;;5.45;;
15116;SDS011;7659;51.038;13.786;2023-05-07T11:32:23;5.95;;;4.80;;
15116;SDS011;7659;51.038;13.786;2023-05-07T11:34:52;6.00;;;5.40;;
15116;SDS011;7659;51.038;13.786;2023-05-07T11:37:19;5.70;;;5.00;;
15116;SDS011;7659;51.038;13.786;2023-05-07T11:40:08;7.18;;;5.40;;
15116;SDS011;7659;51.038;13.786;2023-05-07T11:42:35;6.70;;;5.35;;
15116;SDS011;7659;51.038;13.786;2023-05-07T11:45:01;6.07;;;5.47;;
15116;SDS011;7659;51.038;13.786;2023-05-07T11:47:29;6.53;;;5.82;;
15116;SDS011;7659;51.038;13.786;2023-05-07T11:49:55;7.47;;;6.45;;
15116;SDS011;7659;51.038;13.786;2023-05-07T11:52:21;7.00;;;6.05;;
15116;SDS011;7659;51.038;13.786;2023-05-07T11:54:50;6.25;;;5.47;;
15116;SDS011;7659;51.038;13.786;2023-05-07T11:57:16;8.27;;;5.68;;
15116;SDS011;7659;51.038;13.786;2023-05-07T11:59:42;5.03;;;4.53;;
15116;SDS011;7659;51.038;13.786;2023-05-07T12:02:09;5.97;;;5.38;;
15116;SDS011;7659;51.038;13.786;2023-05-07T12:04:35;6.07;;;5.28;;
15116;SDS011;7659;51.038;13.786;2023-05-07T12:07:01;5.75;;;5.20;;
15116;SDS011;7659;51.038;13.786;2023-05-07T12:09:26;5.88;;;5.28;;
15116;SDS011;7659;51.038;13.786;2023-05-07T12:11:52;5.93;;;5.32;;
15116;SDS011;7659;51.038;13.786;2023-05-07T12:14:18;5.88;;;5.28;;
15116;SDS011;7659;51.038;13.786;2023-05-07T12:16:43;8.27;;;5.53;;
15116;SDS011;7659;51.038;13.786;2023-05-07T12:19:10;6.40;;;5.38;;
15116;SDS011;7659;51.038;13.786;2023-05-07T12:21:38;6.80;;;5.50;;
15116;SDS011;7659;51.038;13.786;2023-05-07T12:24:03;6.13;;;4.88;;
15116;SDS011;7659;51.038;13.786;2023-05-07T12:26:29;6.15;;;5.40;;
15116;SDS011;7659;51.038;13.786;2023-05-07T12:28:54;6.00;;;5.40;;
15116;SDS011;7659;51.038;13.786;2023-05-07T12:31:20;6.72;;;5.18;;
15116;SDS011;7659;51.038;13.786;2023-05-07T12:33:45;7.07;;;5.18;;
15116;SDS011;7659;51.038;13.786;2023-05-07T12:36:12;5.85;;;5.25;;
15116;SDS011;7659;51.038;13.786;2023-05-07T12:38:38;6.72;;;5.10;;
15116;SDS011;7659;51.038;13.786;2023-05-07T12:41:04;4.80;;;4.30;;
15116;SDS011;7659;51.038;13.786;2023-05-07T12:43:30;9.82;;;5.47;;
15116;SDS011;7659;51.038;13.786;2023-05-07T12:45:56;5.45;;;4.93;;
15116;SDS011;7659;51.038;13.786;2023-05-07T12:48:22;5.88;;;4.32;;
15116;SDS011;7659;51.038;13.786;2023-05-07T12:50:51;4.43;;;4.03;;
15116;SDS011;7659;51.038;13.786;2023-05-07T12:53:19;5.10;;;4.60;;
15116;SDS011;7659;51.038;13.786;2023-05-07T12:55:46;4.93;;;4.45;;
15116;SDS011;7659;51.038;13.786;2023-05-07T12:58:30;8.02;;;4.20;;
15116;SDS011;7659;51.038;13.786;2023-05-07T13:00:57;4.07;;;3.67;;
15116;SDS011;7659;51.038;13.786;2023-05-07T13:03:29;7.07;;;4.15;;
15116;SDS011;7659;51.038;13.786;2023-05-07T13:05:59;8.02;;;4.30;;
15116;SDS011;7659;51.038;13.786;2023-05-07T13:08:25;4.97;;;4.47;;
15116;SDS011;7659;51.038;13.786;2023-05-07T13:10:51;4.07;;;3.67;;
15116;SDS011;7659;51.038;13.786;2023-05-07T13:13:17;5.68;;;4.07;;
15116;SDS011;7659;51.038;13.786;2023-05-07T13:15:43;4.47;;;3.85;;
15116;SDS011;7659;51.038;13.786;2023-05-07T13:18:08;5.53;;;3.95;;
15116;SDS011;7659;51.038;13.786;2023-05-07T13:20:35;4.53;;;3.78;;
15116;SDS011;7659;51.038;13.786;2023-05-07T13:23:01;4.22;;;3.83;;
15116;SDS011;7659;51.038;13.786;2023-05-07T13:25:27;5.60;;;3.95;;
15116;SDS011;7659;51.038;13.786;2023-05-07T13:27:52;4.40;;;4.00;;
15116;SDS011;7659;51.038;13.786;2023-05-07T13:30:18;6.40;;;4.03;;
15116;SDS011;7659;51.038;13.786;2023-05-07T13:32:43;4.88;;;4.07;;
15116;SDS011;7659;51.038;13.786;2023-05-07T13:35:10;5.10;;;4.03;;
15116;SDS011;7659;51.038;13.786;2023-05-07T13:37:36;4.47;;;4.07;;
15116;SDS011;7659;51.038;13.786;2023-05-07T13:40:02;4.88;;;4.05;;
15116;SDS011;7659;51.038;13.786;2023-05-07T13:42:27;5.95;;;4.15;;
15116;SDS011;7659;51.038;13.786;2023-05-07T13:44:53;6.55;;;4.30;;
15116;SDS011;7659;51.038;13.786;2023-05-07T13:47:18;6.18;;;4.05;;
15116;SDS011;7659;51.038;13.786;2023-05-07T13:49:44;4.80;;;4.13;;
15116;SDS011;7659;51.038;13.786;2023-05-07T13:52:09;7.30;;;4.20;;
15116;SDS011;7659;51.038;13.786;2023-05-07T13:54:35;4.82;;;4.13;;
15116;SDS011;7659;51.038;13.786;2023-05-07T13:57:01;4.32;;;3.80;;
15116;SDS011;7659;51.038;13.786;2023-05-07T13:59:26;6.13;;;4.05;;
15116;SDS011;7659;51.038;13.786;2023-05-07T14:01:52;4.18;;;3.75;;
15116;SDS011;7659;51.038;13.786;2023-05-07T14:04:17;5.60;;;3.55;;
15116;SDS011;7659;51.038;13.786;2023-05-07T14:06:43;4.68;;;3.50;;
15116;SDS011;7659;51.038;13.786;2023-05-07T14:09:08;5.43;;;3.25;;
15116;SDS011;7659;51.038;13.786;2023-05-07T14:11:37;3.47;;;3.17;;
15116;SDS011;7659;51.038;13.786;2023-05-07T14:14:02;4.07;;;3.30;;
15116;SDS011;7659;51.038;13.786;2023-05-07T14:16:28;4.18;;;3.00;;
15116;SDS011;7659;51.038;13.786;2023-05-07T14:18:53;7.53;;;3.00;;
15116;SDS011;7659;51.038;13.786;2023-05-07T14:21:19;3.17;;;2.88;;
15116;SDS011;7659;51.038;13.786;2023-05-07T14:23:45;3.75;;;2.70;;
15116;SDS011;7659;51.038;13.786;2023-05-07T14:26:10;4.57;;;2.20;;
15116;SDS011;7659;51.038;13.786;2023-05-07T14:28:35;2.83;;;2.50;;
15116;SDS011;7659;51.038;13.786;2023-05-07T14:31:01;3.80;;;2.70;;
15116;SDS011;7659;51.038;13.786;2023-05-07T14:33:26;2.78;;;2.45;;
15116;SDS011;7659;51.038;13.786;2023-05-07T14:35:52;7.70;;;2.80;;
15116;SDS011;7659;51.038;13.786;2023-05-07T14:38:17;3.72;;;2.22;;
15116;SDS011;7659;51.038;13.786;2023-05-07T14:40:43;4.30;;;2.35;;
15116;SDS011;7659;51.038;13.786;2023-05-07T14:43:08;3.08;;;2.28;;
15116;SDS011;7659;51.038;13.786;2023-05-07T14:45:34;6.05;;;2.47;;
15116;SDS011;7659;51.038;13.786;2023-05-07T14:47:59;5.13;;;2.60;;
15116;SDS011;7659;51.038;13.786;2023-05-07T14:50:25;3.58;;;2.80;;